Time;durP1;ratioP1;P1;durP2;ratioP2;P2;SDS_P1;SDS_P2;PMS_P1;PMS_P2;Temp;Humidity;BMP_temperature;BMP_pressure;BME280_temperature;BME280_humidity;BME280_pressure;Samples;Min_cycle;Max_cycle;Signal;HPM_P1;HPM_P2
2022/03/04 00:02:07;;;;;;;20.75;5.05;;;1.70;99.90;;;;;;5004419;28;20022;-73
2022/03/04 00:04:37;;;;;;;11.70;4.72;;;1.80;99.90;;;;;;4987798;28;20061;-72
2022/03/04 00:07:04;;;;;;;15.25;5.30;;;1.70;99.90;;;;;;5005224;28;20042;-73
2022/03/04 00:09:30;;;;;;;15.57;4.95;;;1.70;99.90;;;;;;5005216;28;20105;-72
2022/03/04 00:11:56;;;;;;;17.02;5.47;;;1.70;99.90;;;;;;5005280;28;20086;-72
2022/03/04 00:14:22;;;;;;;18.27;6.40;;;1.60;99.90;;;;;;4987807;28;20033;-71
2022/03/04 00:16:47;;;;;;;10.38;4.43;;;1.60;99.90;;;;;;4987394;28;20060;-72
2022/03/04 00:19:13;;;;;;;16.60;5.20;;;1.60;99.90;;;;;;5005369;28;20102;-72
2022/03/04 00:21:44;;;;;;;14.57;5.53;;;1.50;99.90;;;;;;5005170;28;20070;-72
2022/03/04 00:24:11;;;;;;;13.77;5.35;;;1.50;99.90;;;;;;5004682;28;20425;-71
2022/03/04 00:26:38;;;;;;;12.32;4.10;;;1.50;99.90;;;;;;5004558;28;20038;-73
2022/03/04 00:29:05;;;;;;;13.85;5.35;;;1.50;99.90;;;;;;5005322;28;20106;-72
2022/03/04 00:31:35;;;;;;;11.23;4.72;;;1.50;99.90;;;;;;5005045;28;20114;-72
2022/03/04 00:34:02;;;;;;;15.68;5.22;;;1.50;99.90;;;;;;4987706;28;20058;-70
2022/03/04 00:36:29;;;;;;;18.98;4.95;;;1.40;99.90;;;;;;5005081;28;20035;-72
2022/03/04 00:38:56;;;;;;;14.23;5.07;;;1.50;99.90;;;;;;5004799;28;20027;-71
2022/03/04 00:41:22;;;;;;;20.77;6.03;;;1.50;99.90;;;;;;4987020;28;20049;-74
2022/03/04 00:43:52;;;;;;;14.43;5.15;;;1.50;99.90;;;;;;4996925;28;20053;-72
2022/03/04 00:46:18;;;;;;;24.52;5.78;;;1.50;99.90;;;;;;4987413;28;20034;-72
2022/03/04 00:48:45;;;;;;;13.25;5.15;;;1.40;99.90;;;;;;5005197;28;20035;-72
2022/03/04 00:51:12;;;;;;;12.95;5.72;;;1.50;99.90;;;;;;4986378;28;20035;-72
2022/03/04 00:53:38;;;;;;;11.60;5.00;;;1.60;99.90;;;;;;5004815;28;20137;-72
2022/03/04 00:56:06;;;;;;;10.40;4.72;;;1.50;99.90;;;;;;4983526;28;20039;-71
2022/03/04 00:58:33;;;;;;;14.73;5.10;;;1.50;99.90;;;;;;4999574;28;20046;-74
2022/03/04 01:00:58;;;;;;;13.35;5.75;;;1.50;99.90;;;;;;5004942;28;20062;-73
2022/03/04 01:03:24;;;;;;;14.90;4.97;;;1.50;99.90;;;;;;5004762;28;20038;-73
2022/03/04 01:05:50;;;;;;;12.85;5.05;;;1.50;99.90;;;;;;4986989;28;20031;-72
2022/03/04 01:08:16;;;;;;;15.30;4.95;;;1.50;99.90;;;;;;5004539;28;20047;-71
2022/03/04 01:10:41;;;;;;;15.18;5.30;;;1.50;99.90;;;;;;5004616;28;20034;-73
2022/03/04 01:13:07;;;;;;;15.38;4.55;;;1.50;99.90;;;;;;5005815;28;20041;-73
2022/03/04 01:15:33;;;;;;;16.15;4.82;;;1.50;99.90;;;;;;5008413;28;20113;-73
2022/03/04 01:17:59;;;;;;;23.50;6.00;;;1.60;99.90;;;;;;5008303;28;20030;-71
2022/03/04 01:20:24;;;;;;;15.32;5.30;;;1.70;99.90;;;;;;4993023;28;20058;-72
2022/03/04 01:22:50;;;;;;;15.68;5.00;;;1.70;99.90;;;;;;5008216;28;20031;-73
2022/03/04 01:25:16;;;;;;;15.27;6.30;;;1.80;99.90;;;;;;5008118;28;20037;-71
2022/03/04 01:27:41;;;;;;;14.18;4.65;;;1.90;99.90;;;;;;5007785;28;20038;-72
2022/03/04 01:30:09;;;;;;;11.80;4.47;;;1.90;99.90;;;;;;5008364;28;20486;-72
2022/03/04 01:32:36;;;;;;;17.52;6.78;;;1.90;99.90;;;;;;5007997;28;20026;-72
2022/03/04 01:35:03;;;;;;;17.10;4.78;;;1.90;99.90;;;;;;5008052;28;20046;-73
2022/03/04 01:37:29;;;;;;;14.90;4.70;;;1.90;99.90;;;;;;5007743;28;20150;-72
2022/03/04 01:39:55;;;;;;;13.20;4.82;;;2.00;99.90;;;;;;5007271;28;20116;-72
2022/03/04 01:42:20;;;;;;;15.48;4.13;;;2.00;99.90;;;;;;5007781;28;20841;-71
2022/03/04 01:44:46;;;;;;;13.93;4.75;;;2.00;99.90;;;;;;5008018;28;20053;-71
2022/03/04 01:47:12;;;;;;;14.32;5.07;;;2.00;99.90;;;;;;5007157;28;20026;-72
2022/03/04 01:49:40;;;;;;;15.80;4.75;;;2.00;99.90;;;;;;5007752;28;20031;-73
2022/03/04 01:52:06;;;;;;;8.85;4.15;;;2.00;99.90;;;;;;5007795;28;20026;-73
2022/03/04 01:54:34;;;;;;;11.90;4.63;;;2.10;99.90;;;;;;5007607;28;20069;-71
2022/03/04 01:57:00;;;;;;;15.32;5.72;;;2.10;99.90;;;;;;5007739;28;20038;-72
2022/03/04 01:59:26;;;;;;;20.35;4.35;;;2.00;99.90;;;;;;5007293;28;20082;-72
2022/03/04 02:01:52;;;;;;;13.95;5.22;;;2.00;99.90;;;;;;5007349;28;20085;-72
2022/03/04 02:04:23;;;;;;;16.38;5.30;;;2.00;99.90;;;;;;5007212;28;20030;-72
2022/03/04 02:06:48;;;;;;;14.48;4.97;;;2.10;99.90;;;;;;5007181;28;20078;-71
2022/03/04 02:09:15;;;;;;;18.02;4.85;;;2.10;99.90;;;;;;5007200;28;20023;-72
2022/03/04 02:11:43;;;;;;;17.83;5.47;;;2.00;99.90;;;;;;5007340;28;20023;-73
2022/03/04 02:14:12;;;;;;;16.00;4.75;;;2.00;99.90;;;;;;5007401;28;20022;-72
2022/03/04 02:16:49;;;;;;;10.93;4.68;;;2.00;99.90;;;;;;5006778;28;20026;-71
2022/03/04 02:19:16;;;;;;;25.77;4.68;;;1.90;99.90;;;;;;5007326;28;20050;-72
2022/03/04 02:21:55;;;;;;;13.77;4.72;;;1.90;99.90;;;;;;5004997;28;20046;-71
2022/03/04 02:24:23;;;;;;;18.35;5.25;;;1.90;99.90;;;;;;5005954;28;20024;-71
2022/03/04 02:26:50;;;;;;;13.90;5.22;;;1.90;99.90;;;;;;5006903;28;20573;-71
2022/03/04 02:29:16;;;;;;;16.08;4.97;;;1.80;99.90;;;;;;5007059;28;20031;-73
2022/03/04 02:31:42;;;;;;;15.18;5.63;;;1.80;99.90;;;;;;5006695;28;20033;-72
2022/03/04 02:34:08;;;;;;;10.98;4.40;;;1.70;99.90;;;;;;4989523;28;20090;-73
2022/03/04 02:36:35;;;;;;;13.07;5.03;;;1.70;99.90;;;;;;5007260;28;20034;-74
2022/03/04 02:39:01;;;;;;;11.18;4.22;;;1.70;99.90;;;;;;5006833;28;20497;-71
2022/03/04 02:41:27;;;;;;;18.10;5.55;;;1.70;99.90;;;;;;5006338;28;20046;-71
2022/03/04 02:43:56;;;;;;;13.00;5.30;;;1.70;99.90;;;;;;4989282;28;20026;-72
2022/03/04 02:46:22;;;;;;;18.65;4.30;;;1.70;99.90;;;;;;5006603;28;20034;-71
2022/03/04 02:48:47;;;;;;;11.35;4.43;;;1.70;99.90;;;;;;5006858;28;20113;-71
2022/03/04 02:51:13;;;;;;;12.45;5.55;;;1.60;99.90;;;;;;5006390;28;20035;-71
2022/03/04 02:53:39;;;;;;;12.32;4.45;;;1.70;99.90;;;;;;5006281;28;20076;-72
2022/03/04 02:56:05;;;;;;;20.08;5.45;;;1.70;99.90;;;;;;4988494;28;20022;-72
2022/03/04 02:58:30;;;;;;;14.75;4.43;;;1.60;99.90;;;;;;5006497;28;20039;-71
2022/03/04 03:00:56;;;;;;;11.93;5.25;;;1.60;99.90;;;;;;4988581;28;20054;-72
2022/03/04 03:03:21;;;;;;;11.25;4.22;;;1.50;99.90;;;;;;5006379;28;20504;-72
2022/03/04 03:05:47;;;;;;;14.43;4.47;;;1.50;99.90;;;;;;5005834;28;20030;-73
2022/03/04 03:08:13;;;;;;;15.82;4.80;;;1.50;99.90;;;;;;5005967;28;20088;-71
2022/03/04 03:10:38;;;;;;;20.50;4.70;;;1.50;99.90;;;;;;5006434;28;20097;-72
2022/03/04 03:13:04;;;;;;;16.85;5.07;;;1.40;99.90;;;;;;5005915;28;20042;-72
2022/03/04 03:15:30;;;;;;;17.67;5.25;;;1.40;99.90;;;;;;4988990;28;20030;-72
2022/03/04 03:17:56;;;;;;;12.25;4.30;;;1.30;99.90;;;;;;5006116;28;20030;-73
2022/03/04 03:20:22;;;;;;;13.00;4.32;;;1.30;99.90;;;;;;5005634;28;20038;-71
2022/03/04 03:22:47;;;;;;;16.40;4.93;;;1.30;99.90;;;;;;4988575;28;20026;-71
2022/03/04 03:25:13;;;;;;;10.75;4.15;;;1.30;99.90;;;;;;5005112;28;20057;-71
2022/03/04 03:27:39;;;;;;;17.05;5.35;;;1.20;99.90;;;;;;5005137;28;20542;-71
2022/03/04 03:30:09;;;;;;;16.40;4.63;;;1.20;99.90;;;;;;5006096;28;20033;-73
2022/03/04 03:32:35;;;;;;;11.57;4.72;;;1.20;99.90;;;;;;5005872;28;20085;-72
2022/03/04 03:35:01;;;;;;;11.40;4.80;;;1.20;99.90;;;;;;5004293;28;20031;-72
2022/03/04 03:37:27;;;;;;;10.35;4.13;;;1.20;99.90;;;;;;5006008;28;20599;-71
2022/03/04 03:39:53;;;;;;;14.23;4.47;;;1.20;99.90;;;;;;5005226;28;20092;-71
2022/03/04 03:42:19;;;;;;;16.17;5.55;;;1.20;99.90;;;;;;5005656;28;20447;-73
2022/03/04 03:44:44;;;;;;;18.30;5.78;;;1.10;99.90;;;;;;5005855;28;20114;-73
2022/03/04 03:47:10;;;;;;;12.02;4.40;;;1.10;99.90;;;;;;5005405;28;20026;-70
2022/03/04 03:49:37;;;;;;;9.98;4.07;;;1.10;99.90;;;;;;5005751;28;20025;-72
2022/03/04 03:52:03;;;;;;;20.75;4.97;;;1.10;99.90;;;;;;5005923;28;20026;-70
2022/03/04 03:54:29;;;;;;;22.20;5.63;;;1.10;99.90;;;;;;5005445;28;20026;-70
2022/03/04 03:56:54;;;;;;;18.33;4.80;;;1.00;99.90;;;;;;5005368;28;20049;-70
2022/03/04 03:59:20;;;;;;;19.55;5.50;;;1.00;99.90;;;;;;5005753;28;20034;-72
2022/03/04 04:01:46;;;;;;;15.55;4.88;;;1.00;99.90;;;;;;5005038;28;20073;-72
2022/03/04 04:04:12;;;;;;;16.33;5.15;;;1.00;99.90;;;;;;5005276;28;20041;-73
2022/03/04 04:06:39;;;;;;;8.80;4.95;;;0.90;99.90;;;;;;4987816;28;20034;-71
2022/03/04 04:09:05;;;;;;;11.77;4.60;;;0.90;99.90;;;;;;5004703;28;20026;-73
2022/03/04 04:11:34;;;;;;;11.70;4.38;;;0.90;99.90;;;;;;5005568;28;20034;-73
2022/03/04 04:14:01;;;;;;;11.93;4.88;;;1.00;99.90;;;;;;5004164;28;20030;-72
2022/03/04 04:16:27;;;;;;;21.38;4.90;;;1.00;99.90;;;;;;5005170;28;20030;-69
2022/03/04 04:18:52;;;;;;;15.68;4.57;;;0.90;99.90;;;;;;5005487;28;20034;-71
2022/03/04 04:21:18;;;;;;;12.88;4.82;;;1.00;99.90;;;;;;5005120;28;20042;-71
2022/03/04 04:23:43;;;;;;;14.90;5.15;;;1.00;99.90;;;;;;5004925;28;20041;-71
2022/03/04 04:26:10;;;;;;;14.02;4.32;;;1.00;99.90;;;;;;5005465;28;20035;-72
2022/03/04 04:28:36;;;;;;;15.13;4.97;;;0.90;99.90;;;;;;5005291;28;20049;-71
2022/03/04 04:31:03;;;;;;;15.13;4.80;;;1.00;99.90;;;;;;5004922;28;20059;-73
2022/03/04 04:33:28;;;;;;;13.88;4.43;;;1.00;99.90;;;;;;5005177;28;20029;-72
2022/03/04 04:35:54;;;;;;;12.27;4.07;;;1.00;99.90;;;;;;5004279;28;20058;-72
2022/03/04 04:38:19;;;;;;;14.38;4.20;;;0.90;99.90;;;;;;4987135;28;20031;-72
2022/03/04 04:40:45;;;;;;;16.85;5.07;;;1.00;99.90;;;;;;5004971;28;20046;-73
2022/03/04 04:43:11;;;;;;;9.95;4.40;;;1.00;99.90;;;;;;5005076;28;20053;-72
2022/03/04 04:45:36;;;;;;;17.83;5.20;;;1.00;99.90;;;;;;5004494;28;20065;-72
2022/03/04 04:48:03;;;;;;;11.30;4.65;;;1.00;99.90;;;;;;5006252;28;20040;-72
2022/03/04 04:50:28;;;;;;;12.48;4.13;;;1.00;99.90;;;;;;5008704;28;20061;-72
2022/03/04 04:52:54;;;;;;;15.35;5.00;;;1.00;99.90;;;;;;5008646;28;20466;-72
2022/03/04 04:55:19;;;;;;;12.70;4.55;;;1.10;99.90;;;;;;5007996;28;20039;-73
2022/03/04 04:57:45;;;;;;;12.40;3.78;;;1.10;99.90;;;;;;5008619;28;20094;-72
2022/03/04 05:00:11;;;;;;;10.90;4.22;;;1.10;99.90;;;;;;5008322;28;20044;-71
2022/03/04 05:02:37;;;;;;;12.20;4.70;;;1.10;99.90;;;;;;4991166;28;20080;-72
2022/03/04 05:05:03;;;;;;;11.27;3.85;;;1.20;99.90;;;;;;5008415;28;20117;-71
2022/03/04 05:07:29;;;;;;;13.70;4.15;;;1.20;99.90;;;;;;5008163;28;20059;-71
2022/03/04 05:09:55;;;;;;;12.63;2.90;;;1.30;99.90;;;;;;5008432;28;20038;-71
2022/03/04 05:12:20;;;;;;;9.80;3.63;;;1.30;99.90;;;;;;5008320;28;20030;-72
2022/03/04 05:14:46;;;;;;;11.75;4.60;;;1.30;99.90;;;;;;4990431;28;20038;-71
2022/03/04 05:17:11;;;;;;;11.98;3.90;;;1.40;99.90;;;;;;4990810;28;20030;-71
2022/03/04 05:19:38;;;;;;;10.10;3.88;;;1.40;99.90;;;;;;5007949;28;20037;-71
2022/03/04 05:22:04;;;;;;;10.43;4.38;;;1.40;99.90;;;;;;4991060;28;20069;-73
2022/03/04 05:24:30;;;;;;;7.32;2.88;;;1.50;99.90;;;;;;5008086;28;20045;-72
2022/03/04 05:26:55;;;;;;;8.23;3.25;;;1.50;99.90;;;;;;4990350;28;20026;-70
2022/03/04 05:29:21;;;;;;;11.05;3.85;;;1.50;99.90;;;;;;5008193;28;20099;-71
2022/03/04 05:31:46;;;;;;;9.48;3.67;;;1.60;99.90;;;;;;5007819;28;20027;-71
2022/03/04 05:34:12;;;;;;;11.20;4.38;;;1.60;99.90;;;;;;5007912;28;20037;-71
2022/03/04 05:36:39;;;;;;;10.65;3.65;;;1.60;99.90;;;;;;4990693;28;20151;-73
2022/03/04 05:39:06;;;;;;;20.33;6.00;;;1.60;99.90;;;;;;4989840;28;20768;-70
2022/03/04 05:41:32;;;;;;;11.82;3.70;;;1.70;99.90;;;;;;5007912;28;20062;-72
2022/03/04 05:43:58;;;;;;;8.93;3.58;;;1.70;99.90;;;;;;5007998;28;20041;-71
2022/03/04 05:46:24;;;;;;;11.52;3.72;;;1.70;99.90;;;;;;5006751;28;20093;-71
2022/03/04 05:48:50;;;;;;;13.55;4.43;;;1.70;99.90;;;;;;5007610;28;20030;-71
2022/03/04 05:51:15;;;;;;;13.40;4.82;;;1.70;99.90;;;;;;5007742;28;20029;-71
2022/03/04 05:53:41;;;;;;;9.85;3.38;;;1.70;99.90;;;;;;5007215;28;20042;-71
2022/03/04 05:56:09;;;;;;;12.05;3.78;;;1.70;99.90;;;;;;5007064;28;20161;-70
2022/03/04 05:58:37;;;;;;;13.20;3.55;;;1.70;99.90;;;;;;4989835;28;20026;-73
2022/03/04 06:01:06;;;;;;;10.82;3.08;;;1.70;99.90;;;;;;5005919;28;20034;-73
2022/03/04 06:03:34;;;;;;;10.57;3.63;;;1.70;99.90;;;;;;4989965;28;20035;-72
2022/03/04 06:06:00;;;;;;;12.88;4.32;;;1.70;99.90;;;;;;5006767;28;20495;-72
2022/03/04 06:08:25;;;;;;;15.50;5.28;;;1.60;99.90;;;;;;4988765;28;20054;-71
2022/03/04 06:10:51;;;;;;;7.80;3.85;;;1.70;99.90;;;;;;4988488;28;20042;-72
2022/03/04 06:13:17;;;;;;;10.73;4.43;;;1.70;99.90;;;;;;4996305;28;20111;-72
2022/03/04 06:15:43;;;;;;;16.58;4.63;;;1.70;99.90;;;;;;5006831;28;20033;-72
2022/03/04 06:18:08;;;;;;;15.65;5.57;;;1.70;99.90;;;;;;5007290;28;20470;-72
2022/03/04 06:20:36;;;;;;;14.77;4.65;;;1.70;99.90;;;;;;5006922;28;20069;-72
2022/03/04 06:23:02;;;;;;;12.13;4.43;;;1.80;99.90;;;;;;4989724;28;20038;-72
2022/03/04 06:25:28;;;;;;;18.58;5.35;;;1.80;99.90;;;;;;5007307;28;20532;-71
2022/03/04 06:27:56;;;;;;;12.70;4.40;;;1.80;99.90;;;;;;4994747;28;20035;-71
2022/03/04 06:30:23;;;;;;;12.98;4.47;;;1.80;99.90;;;;;;4971548;28;20038;-72
2022/03/04 06:32:50;;;;;;;10.18;4.35;;;1.80;99.90;;;;;;5006755;28;20054;-71
2022/03/04 06:35:16;;;;;;;15.25;5.07;;;1.70;99.90;;;;;;5006522;28;20034;-71
2022/03/04 06:37:42;;;;;;;14.80;5.25;;;1.80;99.90;;;;;;5006109;28;20101;-71
2022/03/04 06:40:11;;;;;;;8.80;4.35;;;1.70;99.90;;;;;;5006147;28;20072;-72
2022/03/04 06:42:38;;;;;;;14.90;6.15;;;1.70;99.90;;;;;;4988946;28;20062;-74
2022/03/04 06:45:05;;;;;;;13.38;4.68;;;1.70;99.90;;;;;;5007002;28;20062;-73
2022/03/04 06:47:30;;;;;;;10.40;4.55;;;1.80;99.90;;;;;;5005799;28;20048;-71
2022/03/04 06:49:56;;;;;;;14.93;4.97;;;1.80;99.90;;;;;;5000802;28;20086;-71
2022/03/04 06:52:22;;;;;;;12.38;4.32;;;1.80;99.90;;;;;;4983510;28;20434;-71
2022/03/04 06:54:48;;;;;;;14.63;3.75;;;1.80;99.90;;;;;;4994878;28;20027;-71
2022/03/04 06:57:14;;;;;;;11.73;4.57;;;1.80;99.90;;;;;;4986137;28;20062;-70
2022/03/04 06:59:40;;;;;;;11.05;4.93;;;1.80;99.90;;;;;;4986588;28;20094;-71
2022/03/04 07:02:06;;;;;;;9.80;4.18;;;1.80;99.90;;;;;;4974105;28;20084;-72
2022/03/04 07:04:33;;;;;;;10.13;3.75;;;1.80;99.90;;;;;;4997376;28;20121;-72
2022/03/04 07:06:59;;;;;;;12.93;4.80;;;1.80;99.90;;;;;;4988493;28;20125;-70
2022/03/04 07:09:24;;;;;;;10.32;3.95;;;1.90;99.90;;;;;;4993727;28;20041;-71
2022/03/04 07:11:50;;;;;;;6.90;2.78;;;1.90;99.90;;;;;;5005574;28;20042;-71
2022/03/04 07:14:16;;;;;;;9.95;3.65;;;1.90;99.90;;;;;;5006029;28;20042;-72
2022/03/04 07:16:42;;;;;;;10.43;3.45;;;1.90;99.90;;;;;;4981256;28;20045;-71
2022/03/04 07:19:07;;;;;;;15.02;4.22;;;2.00;99.90;;;;;;4997024;28;20057;-71
2022/03/04 07:21:33;;;;;;;12.57;4.40;;;2.00;99.90;;;;;;5002486;28;20398;-72
2022/03/04 07:23:59;;;;;;;12.02;4.95;;;2.00;99.90;;;;;;4988104;28;20026;-70
2022/03/04 07:26:25;;;;;;;13.15;4.20;;;2.00;99.90;;;;;;5005369;28;20049;-70
2022/03/04 07:28:50;;;;;;;12.77;4.15;;;2.00;99.90;;;;;;5005040;28;20030;-71
2022/03/04 07:31:16;;;;;;;12.65;4.60;;;2.00;99.90;;;;;;4998473;28;20039;-69
2022/03/04 07:33:42;;;;;;;14.38;4.72;;;2.00;99.90;;;;;;4998971;28;20068;-71
2022/03/04 07:36:07;;;;;;;11.10;4.20;;;2.00;99.90;;;;;;5002890;28;20426;-73
2022/03/04 07:38:33;;;;;;;13.50;4.40;;;2.00;99.90;;;;;;5003058;28;20042;-73
2022/03/04 07:40:59;;;;;;;13.18;4.85;;;2.10;99.90;;;;;;5004905;28;20053;-70
2022/03/04 07:43:26;;;;;;;10.95;4.30;;;2.10;99.90;;;;;;4985528;28;20039;-73
2022/03/04 07:45:51;;;;;;;11.90;4.20;;;2.20;99.90;;;;;;5003980;28;20034;-71
2022/03/04 07:48:17;;;;;;;16.73;4.57;;;2.10;99.90;;;;;;5004441;28;20085;-71
2022/03/04 07:50:42;;;;;;;13.00;5.43;;;2.10;99.90;;;;;;4999246;28;20026;-72
2022/03/04 07:53:08;;;;;;;11.18;3.85;;;2.10;99.90;;;;;;5003609;28;20054;-72
2022/03/04 07:55:35;;;;;;;11.07;4.10;;;2.20;99.90;;;;;;5003433;28;20048;-72
2022/03/04 07:58:01;;;;;;;8.95;3.75;;;2.20;99.90;;;;;;5005328;28;20026;-71
2022/03/04 08:00:27;;;;;;;11.52;4.40;;;2.20;99.90;;;;;;5004280;28;20156;-72
2022/03/04 08:02:53;;;;;;;17.98;3.80;;;2.20;99.90;;;;;;5005225;28;20359;-71
2022/03/04 08:05:20;;;;;;;13.35;4.50;;;2.30;99.90;;;;;;5002876;28;20039;-73
2022/03/04 08:07:46;;;;;;;13.93;5.40;;;2.30;99.90;;;;;;5004563;28;20050;-72
2022/03/04 08:10:13;;;;;;;20.02;4.63;;;2.40;99.90;;;;;;5004281;28;20034;-72
2022/03/04 08:12:39;;;;;;;11.32;4.05;;;2.40;99.90;;;;;;5004728;28;20093;-71
2022/03/04 08:15:10;;;;;;;13.95;3.97;;;2.40;99.90;;;;;;5004139;28;20117;-74
2022/03/04 08:17:36;;;;;;;14.52;4.35;;;2.50;99.90;;;;;;4997691;28;20062;-71
2022/03/04 08:20:04;;;;;;;10.07;4.30;;;2.50;99.90;;;;;;5001004;28;20042;-73
2022/03/04 08:22:29;;;;;;;11.60;4.20;;;2.50;99.90;;;;;;4999681;28;20042;-72
2022/03/04 08:24:56;;;;;;;8.90;3.67;;;2.50;99.90;;;;;;5001484;28;20098;-71
2022/03/04 08:27:22;;;;;;;10.07;4.63;;;2.50;99.90;;;;;;5007773;28;20030;-71
2022/03/04 08:29:47;;;;;;;11.25;4.00;;;2.50;99.90;;;;;;5008876;28;20033;-72
2022/03/04 08:32:13;;;;;;;10.55;3.90;;;2.60;99.90;;;;;;4985812;28;20390;-71
2022/03/04 08:34:39;;;;;;;18.83;4.47;;;2.60;99.90;;;;;;4997000;28;20043;-71
2022/03/04 08:37:05;;;;;;;7.78;3.30;;;2.50;99.90;;;;;;5004998;28;20035;-73
2022/03/04 08:39:31;;;;;;;14.77;3.72;;;2.50;99.90;;;;;;5007515;28;20034;-73
2022/03/04 08:41:57;;;;;;;10.43;3.97;;;2.50;99.90;;;;;;5007760;28;20030;-72
2022/03/04 08:44:23;;;;;;;9.75;3.53;;;2.50;99.90;;;;;;5008038;28;20037;-72
2022/03/04 08:46:48;;;;;;;14.43;4.10;;;2.50;99.90;;;;;;5003998;28;20038;-71
2022/03/04 08:49:14;;;;;;;7.88;3.47;;;2.50;99.90;;;;;;4995764;28;20046;-71
2022/03/04 08:51:40;;;;;;;8.57;2.90;;;2.60;99.90;;;;;;5008327;28;20029;-71
2022/03/04 08:54:07;;;;;;;9.98;3.97;;;2.60;99.90;;;;;;5004734;28;20129;-72
2022/03/04 08:56:34;;;;;;;8.50;3.47;;;2.60;99.90;;;;;;5002455;28;20033;-72
2022/03/04 08:59:00;;;;;;;8.88;4.25;;;2.70;99.90;;;;;;4977339;28;20058;-72
2022/03/04 09:01:26;;;;;;;9.23;3.72;;;2.70;99.90;;;;;;4997365;28;20058;-71
2022/03/04 09:03:51;;;;;;;9.23;3.67;;;2.80;99.90;;;;;;4999780;28;20054;-73
2022/03/04 09:06:17;;;;;;;11.90;3.53;;;2.70;99.90;;;;;;4998228;28;20014;-71
2022/03/04 09:08:42;;;;;;;7.25;3.42;;;2.80;99.90;;;;;;4996500;28;20046;-71
2022/03/04 09:11:08;;;;;;;14.85;4.60;;;2.90;99.90;;;;;;4998021;28;20029;-73
2022/03/04 09:13:35;;;;;;;11.95;4.43;;;3.00;99.90;;;;;;4980692;28;20026;-72
2022/03/04 09:16:02;;;;;;;7.50;3.88;;;3.00;99.90;;;;;;5001134;28;20022;-71
2022/03/04 09:18:31;;;;;;;14.00;3.70;;;3.10;99.90;;;;;;4981710;28;20027;-71
2022/03/04 09:20:56;;;;;;;9.00;3.70;;;3.10;99.90;;;;;;4997231;28;20047;-72
2022/03/04 09:23:22;;;;;;;8.00;3.60;;;3.10;99.90;;;;;;4993089;28;20031;-72
2022/03/04 09:25:49;;;;;;;11.90;3.97;;;3.10;99.90;;;;;;4982648;28;20045;-72
2022/03/04 09:28:15;;;;;;;7.53;2.78;;;3.10;99.90;;;;;;4996775;28;20026;-72
2022/03/04 09:30:42;;;;;;;12.57;4.32;;;3.10;99.90;;;;;;5002801;28;20049;-73
2022/03/04 09:33:09;;;;;;;15.30;4.10;;;3.20;99.90;;;;;;5003500;28;20030;-72
2022/03/04 09:35:34;;;;;;;11.45;3.15;;;3.20;99.90;;;;;;4985381;28;20034;-72
2022/03/04 09:38:00;;;;;;;13.85;3.90;;;3.30;99.90;;;;;;5007672;28;20030;-72
2022/03/04 09:40:26;;;;;;;7.20;3.28;;;3.40;99.90;;;;;;5007485;28;20049;-73
2022/03/04 09:42:54;;;;;;;7.53;3.13;;;3.50;99.90;;;;;;5007645;28;20037;-72
2022/03/04 09:45:19;;;;;;;13.40;3.78;;;3.50;99.90;;;;;;5008117;28;20030;-75
2022/03/04 09:47:46;;;;;;;8.52;3.80;;;3.70;99.90;;;;;;5007049;28;20061;-72
2022/03/04 09:50:16;;;;;;;11.10;3.50;;;3.70;99.90;;;;;;5000515;28;20038;-73
2022/03/04 09:52:45;;;;;;;9.20;3.15;;;3.80;99.90;;;;;;5006862;28;20041;-71
2022/03/04 09:55:13;;;;;;;10.00;4.45;;;3.90;99.90;;;;;;5005924;28;20029;-73
2022/03/04 09:57:46;;;;;;;9.45;3.30;;;3.90;99.90;;;;;;4987976;28;20454;-72
2022/03/04 10:00:13;;;;;;;8.13;3.70;;;3.90;99.90;;;;;;5005306;28;20034;-72
2022/03/04 10:02:39;;;;;;;8.57;3.47;;;3.90;99.90;;;;;;5005405;28;20535;-74
2022/03/04 10:05:06;;;;;;;12.02;2.85;;;3.90;99.90;;;;;;4989362;28;20038;-71
2022/03/04 10:07:49;;;;;;;16.83;4.55;;;3.80;99.90;;;;;;5007367;28;20053;-73
2022/03/04 10:10:22;;;;;;;7.32;3.42;;;3.80;99.90;;;;;;5007122;28;20034;-73
2022/03/04 10:12:55;;;;;;;8.07;3.78;;;3.90;99.90;;;;;;5006810;28;20157;-73
2022/03/04 10:15:21;;;;;;;11.18;4.25;;;3.90;99.90;;;;;;5005806;28;20056;-72
2022/03/04 10:18:04;;;;;;;6.30;3.25;;;3.90;99.90;;;;;;5003590;28;20412;-72
2022/03/04 10:20:45;;;;;;;9.30;3.78;;;4.10;99.90;;;;;;4977489;28;20049;-72
2022/03/04 10:23:11;;;;;;;13.77;3.92;;;4.30;99.90;;;;;;4979768;28;20046;-73
2022/03/04 10:25:37;;;;;;;9.30;3.85;;;4.40;99.90;;;;;;4974883;28;20317;-72
2022/03/04 10:28:10;;;;;;;7.75;3.47;;;4.50;99.90;;;;;;4996347;28;20078;-74
2022/03/04 10:30:41;;;;;;;13.43;3.97;;;4.40;99.90;;;;;;5004049;28;20037;-72
2022/03/04 10:33:19;;;;;;;7.57;3.22;;;4.40;99.90;;;;;;5002588;28;20098;-73
2022/03/04 10:35:46;;;;;;;11.18;3.67;;;4.40;99.90;;;;;;5000895;28;20031;-72
2022/03/04 10:38:24;;;;;;;13.88;3.65;;;4.50;99.90;;;;;;5006349;28;20030;-74
2022/03/04 10:40:51;;;;;;;14.98;3.72;;;4.60;99.90;;;;;;5006846;28;20049;-72
2022/03/04 10:43:24;;;;;;;10.05;4.35;;;4.50;99.90;;;;;;5006118;28;20026;-73
2022/03/04 10:46:05;;;;;;;11.75;3.67;;;4.40;99.90;;;;;;5002838;28;20026;-72
2022/03/04 10:48:31;;;;;;;8.00;3.10;;;4.40;99.90;;;;;;4996839;28;20034;-73
2022/03/04 10:51:06;;;;;;;8.90;3.03;;;4.70;99.90;;;;;;5005484;28;20446;-73
2022/03/04 10:53:34;;;;;;;8.85;3.17;;;5.00;99.90;;;;;;5001950;28;20109;-74
2022/03/04 10:56:04;;;;;;;8.23;3.17;;;5.40;99.90;;;;;;5000439;28;20038;-73
2022/03/04 10:58:34;;;;;;;10.27;3.30;;;5.80;99.90;;;;;;4996482;28;20081;-72
2022/03/04 11:01:09;;;;;;;6.38;3.10;;;5.90;99.90;;;;;;4992160;28;20046;-73
2022/03/04 11:03:36;;;;;;;8.25;3.42;;;6.00;99.90;;;;;;4988089;28;20034;-72
2022/03/04 11:06:06;;;;;;;12.15;4.40;;;6.00;99.90;;;;;;5003840;28;20033;-73
2022/03/04 11:08:32;;;;;;;9.98;3.00;;;6.00;99.90;;;;;;5002088;28;20050;-73
2022/03/04 11:10:59;;;;;;;10.80;3.47;;;5.80;99.90;;;;;;4986676;28;20034;-73
2022/03/04 11:13:25;;;;;;;14.60;4.20;;;5.80;99.90;;;;;;4997275;28;20029;-73
2022/03/04 11:15:53;;;;;;;7.28;2.55;;;6.30;99.90;;;;;;5006384;28;20073;-73
2022/03/04 11:18:21;;;;;;;13.57;3.85;;;7.10;99.90;;;;;;4988348;28;20026;-74
2022/03/04 11:20:49;;;;;;;8.10;2.78;;;7.80;99.90;;;;;;4972478;28;20109;-75
2022/03/04 11:23:24;;;;;;;6.43;3.03;;;8.40;99.90;;;;;;4986321;28;20034;-74
2022/03/04 11:25:59;;;;;;;5.72;2.72;;;8.80;99.90;;;;;;5000428;28;20039;-74
2022/03/04 11:28:36;;;;;;;7.60;3.03;;;9.00;99.90;;;;;;5004941;28;20030;-73
2022/03/04 11:31:06;;;;;;;7.45;2.90;;;9.10;99.90;;;;;;5004868;28;20113;-73
2022/03/04 11:33:38;;;;;;;5.97;2.33;;;9.30;99.90;;;;;;4988348;28;20034;-73
2022/03/04 11:36:27;;;;;;;6.65;2.75;;;9.60;99.90;;;;;;5006130;28;20033;-74
2022/03/04 11:38:53;;;;;;;7.28;3.35;;;9.60;99.90;;;;;;5005154;28;20042;-71
2022/03/04 11:41:24;;;;;;;8.52;3.42;;;9.60;99.90;;;;;;5005645;28;20042;-72
2022/03/04 11:44:14;;;;;;;5.22;2.65;;;9.80;99.90;;;;;;5005385;28;20066;-72
2022/03/04 11:47:10;;;;;;;4.43;2.53;;;10.00;99.90;;;;;;4997076;28;20116;-72
2022/03/04 11:49:41;;;;;;;8.40;2.90;;;10.20;99.90;;;;;;4993639;28;20057;-73
2022/03/04 11:52:10;;;;;;;9.55;3.28;;;10.60;99.90;;;;;;5008560;28;20023;-72
2022/03/04 11:54:37;;;;;;;7.05;2.75;;;10.80;99.90;;;;;;4976650;28;20030;-72
2022/03/04 11:57:17;;;;;;;6.70;3.03;;;11.20;99.90;;;;;;4994561;28;20033;-71
2022/03/04 11:59:58;;;;;;;6.82;2.78;;;11.40;99.90;;;;;;4994204;28;20047;-70
2022/03/04 12:02:38;;;;;;;6.57;3.13;;;11.60;99.90;;;;;;4993972;28;20065;-71
2022/03/04 12:05:13;;;;;;;9.43;2.63;;;11.70;99.90;;;;;;4995519;28;20081;-73
2022/03/04 12:07:41;;;;;;;5.60;2.55;;;11.80;99.90;;;;;;4996018;28;20066;-72
2022/03/04 12:10:11;;;;;;;4.47;2.17;;;12.00;99.90;;;;;;4996142;28;20401;-72
2022/03/04 12:12:38;;;;;;;5.65;2.47;;;12.20;99.90;;;;;;4983055;28;20066;-75
2022/03/04 12:15:16;;;;;;;6.45;2.97;;;12.20;99.90;;;;;;4996311;28;20026;-74
2022/03/04 12:17:58;;;;;;;9.18;2.88;;;12.30;99.90;;;;;;4994613;28;20043;-71
2022/03/04 12:20:31;;;;;;;5.93;2.50;;;12.50;99.90;;;;;;4993976;28;20049;-70
2022/03/04 12:23:07;;;;;;;7.60;2.90;;;12.50;99.90;;;;;;4994491;28;20037;-72
2022/03/04 12:25:52;;;;;;;5.65;2.17;;;12.40;99.90;;;;;;4977489;28;20027;-73
2022/03/04 12:28:22;;;;;;;;;;;12.40;99.90;;;;;;4993356;28;20398;-73
2022/03/04 12:31:00;;;;;;;4.40;2.22;;;12.40;99.90;;;;;;4994213;28;19906;-73
2022/03/04 12:33:28;;;;;;;5.07;2.13;;;12.60;99.90;;;;;;4993998;28;20044;-72
2022/03/04 12:35:57;;;;;;;2.92;1.73;;;12.80;99.90;;;;;;4994058;28;20118;-72
2022/03/04 12:38:24;;;;;;;5.50;2.42;;;12.90;99.90;;;;;;4976432;28;20034;-73
2022/03/04 12:40:49;;;;;;;4.38;2.30;;;12.90;99.90;;;;;;4993579;28;20073;-72
2022/03/04 12:43:15;;;;;;;6.18;2.38;;;13.20;99.90;;;;;;4994223;28;20034;-72
2022/03/04 12:45:42;;;;;;;5.28;2.33;;;13.50;99.90;;;;;;4996540;28;20031;-74
2022/03/04 12:48:08;;;;;;;5.75;2.55;;;13.60;99.90;;;;;;4994715;28;20030;-73
2022/03/04 12:50:35;;;;;;;5.30;2.05;;;13.80;99.90;;;;;;4995962;28;20043;-72